sensor_id;sensor_type;location;lat;lon;timestamp;P1;durP1;ratioP1;P2;durP2;ratioP2
17372;SDS011;8803;48.116;11.590;2023-01-15T00:00:41;1.40;;;1.07;;
17372;SDS011;8803;48.116;11.590;2023-01-15T00:02:45;1.53;;;0.90;;
17372;SDS011;8803;48.116;11.590;2023-01-15T00:04:58;1.63;;;0.97;;
17372;SDS011;8803;48.116;11.590;2023-01-15T00:07:03;0.87;;;0.80;;
17372;SDS011;8803;48.116;11.590;2023-01-15T00:09:07;1.00;;;0.90;;
17372;SDS011;8803;48.116;11.590;2023-01-15T00:11:13;1.57;;;0.90;;
17372;SDS011;8803;48.116;11.590;2023-01-15T00:13:26;1.50;;;0.97;;
17372;SDS011;8803;48.116;11.590;2023-01-15T00:17:41;1.13;;;1.00;;
17372;SDS011;8803;48.116;11.590;2023-01-15T00:19:45;1.67;;;1.10;;
17372;SDS011;8803;48.116;11.590;2023-01-15T00:21:49;1.60;;;1.40;;
17372;SDS011;8803;48.116;11.590;2023-01-15T00:26:07;2.17;;;1.77;;
17372;SDS011;8803;48.116;11.590;2023-01-15T00:28:32;1.90;;;1.40;;
17372;SDS011;8803;48.116;11.590;2023-01-15T00:30:38;2.50;;;1.77;;
17372;SDS011;8803;48.116;11.590;2023-01-15T00:32:43;1.97;;;1.67;;
17372;SDS011;8803;48.116;11.590;2023-01-15T00:34:47;2.70;;;1.40;;
17372;SDS011;8803;48.116;11.590;2023-01-15T00:36:51;1.50;;;1.30;;
17372;SDS011;8803;48.116;11.590;2023-01-15T00:38:55;1.43;;;1.13;;
17372;SDS011;8803;48.116;11.590;2023-01-15T00:41:07;1.40;;;1.10;;
17372;SDS011;8803;48.116;11.590;2023-01-15T00:43:11;1.40;;;1.17;;
17372;SDS011;8803;48.116;11.590;2023-01-15T00:47:26;1.33;;;0.90;;
17372;SDS011;8803;48.116;11.590;2023-01-15T00:49:30;0.87;;;0.87;;
17372;SDS011;8803;48.116;11.590;2023-01-15T00:51:34;1.00;;;0.90;;
17372;SDS011;8803;48.116;11.590;2023-01-15T00:53:46;0.70;;;0.70;;
17372;SDS011;8803;48.116;11.590;2023-01-15T00:55:50;0.70;;;0.70;;
17372;SDS011;8803;48.116;11.590;2023-01-15T00:57:54;0.80;;;0.73;;
17372;SDS011;8803;48.116;11.590;2023-01-15T00:59:57;1.03;;;0.83;;
17372;SDS011;8803;48.116;11.590;2023-01-15T01:04:12;3.80;;;1.63;;
17372;SDS011;8803;48.116;11.590;2023-01-15T01:06:17;1.20;;;1.10;;
17372;SDS011;8803;48.116;11.590;2023-01-15T01:08:29;1.10;;;1.00;;
17372;SDS011;8803;48.116;11.590;2023-01-15T01:10:33;1.57;;;0.90;;
17372;SDS011;8803;48.116;11.590;2023-01-15T01:12:37;0.80;;;0.80;;
17372;SDS011;8803;48.116;11.590;2023-01-15T01:14:51;1.27;;;1.00;;
17372;SDS011;8803;48.116;11.590;2023-01-15T01:16:55;1.07;;;0.77;;
17372;SDS011;8803;48.116;11.590;2023-01-15T01:19:08;0.97;;;0.87;;
17372;SDS011;8803;48.116;11.590;2023-01-15T01:21:14;1.00;;;0.90;;
17372;SDS011;8803;48.116;11.590;2023-01-15T01:23:28;1.03;;;0.80;;
17372;SDS011;8803;48.116;11.590;2023-01-15T01:25:32;1.13;;;0.90;;
17372;SDS011;8803;48.116;11.590;2023-01-15T01:27:37;1.20;;;1.00;;
17372;SDS011;8803;48.116;11.590;2023-01-15T01:29:42;1.47;;;0.83;;
17372;SDS011;8803;48.116;11.590;2023-01-15T01:31:46;1.60;;;0.90;;
17372;SDS011;8803;48.116;11.590;2023-01-15T01:33:59;0.80;;;0.80;;
17372;SDS011;8803;48.116;11.590;2023-01-15T01:36:03;0.93;;;0.67;;
17372;SDS011;8803;48.116;11.590;2023-01-15T01:38:07;1.17;;;0.80;;
17372;SDS011;8803;48.116;11.590;2023-01-15T01:40:12;2.13;;;0.90;;
17372;SDS011;8803;48.116;11.590;2023-01-15T01:42:16;1.00;;;0.60;;
17372;SDS011;8803;48.116;11.590;2023-01-15T01:47:02;1.03;;;0.80;;
17372;SDS011;8803;48.116;11.590;2023-01-15T01:49:09;1.20;;;0.80;;
17372;SDS011;8803;48.116;11.590;2023-01-15T01:51:15;1.10;;;1.00;;
17372;SDS011;8803;48.116;11.590;2023-01-15T01:53:28;1.50;;;0.80;;
17372;SDS011;8803;48.116;11.590;2023-01-15T01:55:33;1.07;;;0.80;;
17372;SDS011;8803;48.116;11.590;2023-01-15T01:57:38;1.13;;;0.90;;
17372;SDS011;8803;48.116;11.590;2023-01-15T01:59:52;1.50;;;0.73;;
17372;SDS011;8803;48.116;11.590;2023-01-15T02:01:58;1.47;;;0.70;;
17372;SDS011;8803;48.116;11.590;2023-01-15T02:04:13;1.27;;;0.90;;
17372;SDS011;8803;48.116;11.590;2023-01-15T02:06:19;0.63;;;0.60;;
17372;SDS011;8803;48.116;11.590;2023-01-15T02:08:25;1.20;;;0.80;;
17372;SDS011;8803;48.116;11.590;2023-01-15T02:10:28;1.00;;;0.70;;
17372;SDS011;8803;48.116;11.590;2023-01-15T02:12:43;0.67;;;0.67;;
17372;SDS011;8803;48.116;11.590;2023-01-15T02:14:53;0.97;;;0.70;;
17372;SDS011;8803;48.116;11.590;2023-01-15T02:17:06;1.07;;;0.80;;
17372;SDS011;8803;48.116;11.590;2023-01-15T02:19:14;1.60;;;1.03;;
17372;SDS011;8803;48.116;11.590;2023-01-15T02:21:23;1.07;;;0.80;;
17372;SDS011;8803;48.116;11.590;2023-01-15T02:23:49;0.80;;;0.70;;
17372;SDS011;8803;48.116;11.590;2023-01-15T02:26:02;1.40;;;1.00;;
17372;SDS011;8803;48.116;11.590;2023-01-15T02:28:13;0.80;;;0.73;;
17372;SDS011;8803;48.116;11.590;2023-01-15T02:30:27;0.70;;;0.70;;
17372;SDS011;8803;48.116;11.590;2023-01-15T02:32:34;1.33;;;0.77;;
17372;SDS011;8803;48.116;11.590;2023-01-15T02:34:49;1.57;;;0.80;;
17372;SDS011;8803;48.116;11.590;2023-01-15T02:36:57;0.93;;;0.80;;
17372;SDS011;8803;48.116;11.590;2023-01-15T02:39:05;1.63;;;1.07;;
17372;SDS011;8803;48.116;11.590;2023-01-15T02:41:23;1.53;;;0.80;;
17372;SDS011;8803;48.116;11.590;2023-01-15T02:43:28;2.13;;;0.70;;
17372;SDS011;8803;48.116;11.590;2023-01-15T02:45:36;1.23;;;1.00;;
17372;SDS011;8803;48.116;11.590;2023-01-15T02:47:42;1.17;;;0.80;;
17372;SDS011;8803;48.116;11.590;2023-01-15T02:49:48;1.67;;;0.70;;
17372;SDS011;8803;48.116;11.590;2023-01-15T02:52:04;1.30;;;0.80;;
17372;SDS011;8803;48.116;11.590;2023-01-15T02:54:10;2.40;;;0.70;;
17372;SDS011;8803;48.116;11.590;2023-01-15T02:56:28;0.70;;;0.60;;
17372;SDS011;8803;48.116;11.590;2023-01-15T02:58:36;0.73;;;0.70;;
17372;SDS011;8803;48.116;11.590;2023-01-15T03:00:43;1.83;;;0.70;;
17372;SDS011;8803;48.116;11.590;2023-01-15T03:02:50;1.87;;;0.77;;
17372;SDS011;8803;48.116;11.590;2023-01-15T03:05:06;0.90;;;0.70;;
17372;SDS011;8803;48.116;11.590;2023-01-15T03:07:15;0.70;;;0.70;;
17372;SDS011;8803;48.116;11.590;2023-01-15T03:09:20;1.43;;;0.90;;
17372;SDS011;8803;48.116;11.590;2023-01-15T03:11:37;0.93;;;0.70;;
17372;SDS011;8803;48.116;11.590;2023-01-15T03:13:45;1.07;;;0.80;;
17372;SDS011;8803;48.116;11.590;2023-01-15T03:16:00;1.23;;;0.70;;
17372;SDS011;8803;48.116;11.590;2023-01-15T03:18:35;0.67;;;0.60;;
17372;SDS011;8803;48.116;11.590;2023-01-15T03:20:44;1.00;;;0.73;;
17372;SDS011;8803;48.116;11.590;2023-01-15T03:22:58;0.93;;;0.70;;
17372;SDS011;8803;48.116;11.590;2023-01-15T03:25:04;0.90;;;0.70;;
17372;SDS011;8803;48.116;11.590;2023-01-15T03:27:18;0.63;;;0.60;;
17372;SDS011;8803;48.116;11.590;2023-01-15T03:29:23;0.87;;;0.60;;
17372;SDS011;8803;48.116;11.590;2023-01-15T03:31:29;0.97;;;0.80;;
17372;SDS011;8803;48.116;11.590;2023-01-15T03:33:34;0.67;;;0.57;;
17372;SDS011;8803;48.116;11.590;2023-01-15T03:35:39;0.60;;;0.60;;
17372;SDS011;8803;48.116;11.590;2023-01-15T03:37:59;0.97;;;0.83;;
17372;SDS011;8803;48.116;11.590;2023-01-15T03:40:05;0.67;;;0.67;;
17372;SDS011;8803;48.116;11.590;2023-01-15T03:42:14;0.63;;;0.60;;
17372;SDS011;8803;48.116;11.590;2023-01-15T03:44:31;0.53;;;0.50;;
17372;SDS011;8803;48.116;11.590;2023-01-15T03:46:40;1.27;;;0.77;;
17372;SDS011;8803;48.116;11.590;2023-01-15T03:48:59;0.93;;;0.70;;
17372;SDS011;8803;48.116;11.590;2023-01-15T03:51:07;0.60;;;0.60;;
17372;SDS011;8803;48.116;11.590;2023-01-15T03:53:20;0.67;;;0.60;;
17372;SDS011;8803;48.116;11.590;2023-01-15T03:55:27;0.70;;;0.63;;
17372;SDS011;8803;48.116;11.590;2023-01-15T03:57:33;0.87;;;0.77;;
17372;SDS011;8803;48.116;11.590;2023-01-15T03:59:48;0.83;;;0.70;;
17372;SDS011;8803;48.116;11.590;2023-01-15T04:01:54;0.80;;;0.70;;
17372;SDS011;8803;48.116;11.590;2023-01-15T04:04:09;0.70;;;0.60;;
17372;SDS011;8803;48.116;11.590;2023-01-15T04:06:14;1.57;;;0.73;;
17372;SDS011;8803;48.116;11.590;2023-01-15T04:08:19;0.80;;;0.70;;
17372;SDS011;8803;48.116;11.590;2023-01-15T04:10:24;0.80;;;0.60;;
17372;SDS011;8803;48.116;11.590;2023-01-15T04:12:28;0.77;;;0.60;;
17372;SDS011;8803;48.116;11.590;2023-01-15T04:14:34;0.90;;;0.60;;
17372;SDS011;8803;48.116;11.590;2023-01-15T04:16:47;0.80;;;0.70;;
17372;SDS011;8803;48.116;11.590;2023-01-15T04:18:51;0.70;;;0.60;;
17372;SDS011;8803;48.116;11.590;2023-01-15T04:20:55;1.30;;;0.70;;
17372;SDS011;8803;48.116;11.590;2023-01-15T04:22:59;0.70;;;0.60;;
17372;SDS011;8803;48.116;11.590;2023-01-15T04:25:13;0.73;;;0.63;;
17372;SDS011;8803;48.116;11.590;2023-01-15T04:27:16;0.60;;;0.60;;
17372;SDS011;8803;48.116;11.590;2023-01-15T04:29:29;0.97;;;0.77;;
17372;SDS011;8803;48.116;11.590;2023-01-15T04:33:44;0.93;;;0.70;;
17372;SDS011;8803;48.116;11.590;2023-01-15T04:35:50;1.37;;;0.63;;
17372;SDS011;8803;48.116;11.590;2023-01-15T04:38:06;1.00;;;0.70;;
17372;SDS011;8803;48.116;11.590;2023-01-15T04:40:10;0.80;;;0.80;;
17372;SDS011;8803;48.116;11.590;2023-01-15T04:42:17;0.93;;;0.70;;
17372;SDS011;8803;48.116;11.590;2023-01-15T04:44:32;1.17;;;0.90;;
17372;SDS011;8803;48.116;11.590;2023-01-15T04:46:38;0.60;;;0.57;;
17372;SDS011;8803;48.116;11.590;2023-01-15T04:48:44;0.90;;;0.60;;
17372;SDS011;8803;48.116;11.590;2023-01-15T04:50:48;1.60;;;0.80;;
17372;SDS011;8803;48.116;11.590;2023-01-15T04:52:52;1.30;;;0.83;;
17372;SDS011;8803;48.116;11.590;2023-01-15T04:54:56;0.80;;;0.73;;
17372;SDS011;8803;48.116;11.590;2023-01-15T04:57:10;1.07;;;0.87;;
17372;SDS011;8803;48.116;11.590;2023-01-15T04:59:15;1.47;;;0.90;;
17372;SDS011;8803;48.116;11.590;2023-01-15T05:01:20;2.43;;;0.80;;
17372;SDS011;8803;48.116;11.590;2023-01-15T05:03:24;1.13;;;0.90;;
17372;SDS011;8803;48.116;11.590;2023-01-15T05:05:37;1.63;;;1.00;;
17372;SDS011;8803;48.116;11.590;2023-01-15T05:07:41;1.00;;;0.90;;
17372;SDS011;8803;48.116;11.590;2023-01-15T05:09:44;1.00;;;0.73;;
17372;SDS011;8803;48.116;11.590;2023-01-15T05:11:50;1.00;;;0.73;;
17372;SDS011;8803;48.116;11.590;2023-01-15T05:13:54;0.90;;;0.80;;
17372;SDS011;8803;48.116;11.590;2023-01-15T05:16:11;0.80;;;0.80;;
17372;SDS011;8803;48.116;11.590;2023-01-15T05:18:17;0.77;;;0.70;;
17372;SDS011;8803;48.116;11.590;2023-01-15T05:20:20;0.67;;;0.57;;
17372;SDS011;8803;48.116;11.590;2023-01-15T05:22:36;0.87;;;0.70;;
17372;SDS011;8803;48.116;11.590;2023-01-15T05:24:40;0.80;;;0.73;;
17372;SDS011;8803;48.116;11.590;2023-01-15T05:26:53;0.70;;;0.70;;
17372;SDS011;8803;48.116;11.590;2023-01-15T05:28:58;1.20;;;0.80;;
17372;SDS011;8803;48.116;11.590;2023-01-15T05:31:06;1.47;;;0.80;;
17372;SDS011;8803;48.116;11.590;2023-01-15T05:33:11;0.87;;;0.60;;
17372;SDS011;8803;48.116;11.590;2023-01-15T05:35:15;0.60;;;0.60;;
17372;SDS011;8803;48.116;11.590;2023-01-15T05:37:30;1.17;;;0.67;;
17372;SDS011;8803;48.116;11.590;2023-01-15T05:39:34;1.10;;;0.70;;
17372;SDS011;8803;48.116;11.590;2023-01-15T05:43:49;1.77;;;0.70;;
17372;SDS011;8803;48.116;11.590;2023-01-15T05:45:53;0.90;;;0.70;;
17372;SDS011;8803;48.116;11.590;2023-01-15T05:48:05;0.80;;;0.67;;
17372;SDS011;8803;48.116;11.590;2023-01-15T05:50:10;0.70;;;0.70;;
17372;SDS011;8803;48.116;11.590;2023-01-15T05:52:23;0.60;;;0.50;;
17372;SDS011;8803;48.116;11.590;2023-01-15T05:56:39;0.83;;;0.70;;
17372;SDS011;8803;48.116;11.590;2023-01-15T05:58:46;0.70;;;0.60;;
17372;SDS011;8803;48.116;11.590;2023-01-15T06:00:49;0.67;;;0.60;;
17372;SDS011;8803;48.116;11.590;2023-01-15T06:02:54;0.93;;;0.73;;
17372;SDS011;8803;48.116;11.590;2023-01-15T06:05:08;0.80;;;0.60;;
17372;SDS011;8803;48.116;11.590;2023-01-15T06:07:12;1.27;;;0.53;;
17372;SDS011;8803;48.116;11.590;2023-01-15T06:09:24;0.80;;;0.60;;
17372;SDS011;8803;48.116;11.590;2023-01-15T06:11:29;0.93;;;0.57;;
17372;SDS011;8803;48.116;11.590;2023-01-15T06:13:42;1.73;;;0.57;;
17372;SDS011;8803;48.116;11.590;2023-01-15T06:15:45;0.50;;;0.50;;
17372;SDS011;8803;48.116;11.590;2023-01-15T06:18:01;1.07;;;0.50;;
17372;SDS011;8803;48.116;11.590;2023-01-15T06:20:06;0.33;;;0.33;;
17372;SDS011;8803;48.116;11.590;2023-01-15T06:22:12;0.67;;;0.67;;
17372;SDS011;8803;48.116;11.590;2023-01-15T06:24:24;0.50;;;0.50;;
17372;SDS011;8803;48.116;11.590;2023-01-15T06:26:28;0.80;;;0.50;;
17372;SDS011;8803;48.116;11.590;2023-01-15T06:28:32;1.07;;;0.60;;
17372;SDS011;8803;48.116;11.590;2023-01-15T06:30:37;0.97;;;0.60;;
17372;SDS011;8803;48.116;11.590;2023-01-15T06:32:41;1.30;;;0.70;;
17372;SDS011;8803;48.116;11.590;2023-01-15T06:34:53;0.50;;;0.50;;
17372;SDS011;8803;48.116;11.590;2023-01-15T06:36:57;0.57;;;0.50;;
17372;SDS011;8803;48.116;11.590;2023-01-15T06:39:01;0.47;;;0.47;;
17372;SDS011;8803;48.116;11.590;2023-01-15T06:41:06;0.57;;;0.40;;
17372;SDS011;8803;48.116;11.590;2023-01-15T06:43:30;0.33;;;0.23;;
17372;SDS011;8803;48.116;11.590;2023-01-15T06:45:51;0.30;;;0.30;;
17372;SDS011;8803;48.116;11.590;2023-01-15T06:48:07;0.30;;;0.30;;
17372;SDS011;8803;48.116;11.590;2023-01-15T06:50:11;0.77;;;0.30;;
17372;SDS011;8803;48.116;11.590;2023-01-15T06:52:15;0.20;;;0.20;;
17372;SDS011;8803;48.116;11.590;2023-01-15T06:54:30;0.30;;;0.30;;
17372;SDS011;8803;48.116;11.590;2023-01-15T06:56:34;0.40;;;0.20;;
17372;SDS011;8803;48.116;11.590;2023-01-15T06:58:38;0.60;;;0.50;;
17372;SDS011;8803;48.116;11.590;2023-01-15T07:00:42;0.60;;;0.50;;
17372;SDS011;8803;48.116;11.590;2023-01-15T07:02:47;0.33;;;0.33;;
17372;SDS011;8803;48.116;11.590;2023-01-15T07:04:51;0.37;;;0.30;;
17372;SDS011;8803;48.116;11.590;2023-01-15T07:07:04;0.30;;;0.30;;
17372;SDS011;8803;48.116;11.590;2023-01-15T07:09:08;0.30;;;0.30;;
17372;SDS011;8803;48.116;11.590;2023-01-15T07:11:11;0.20;;;0.20;;
17372;SDS011;8803;48.116;11.590;2023-01-15T07:13:26;0.30;;;0.30;;
17372;SDS011;8803;48.116;11.590;2023-01-15T07:15:29;0.30;;;0.30;;
17372;SDS011;8803;48.116;11.590;2023-01-15T07:17:42;0.27;;;0.27;;
17372;SDS011;8803;48.116;11.590;2023-01-15T07:19:46;0.40;;;0.20;;
17372;SDS011;8803;48.116;11.590;2023-01-15T07:21:49;0.40;;;0.40;;
17372;SDS011;8803;48.116;11.590;2023-01-15T07:23:53;0.97;;;0.40;;
17372;SDS011;8803;48.116;11.590;2023-01-15T07:25:58;1.03;;;0.40;;
17372;SDS011;8803;48.116;11.590;2023-01-15T07:28:11;0.27;;;0.20;;
17372;SDS011;8803;48.116;11.590;2023-01-15T07:30:15;0.83;;;0.20;;
17372;SDS011;8803;48.116;11.590;2023-01-15T07:32:19;0.30;;;0.20;;
17372;SDS011;8803;48.116;11.590;2023-01-15T07:36:35;0.20;;;0.20;;
17372;SDS011;8803;48.116;11.590;2023-01-15T07:38:39;0.83;;;0.10;;
17372;SDS011;8803;48.116;11.590;2023-01-15T07:40:43;0.20;;;0.20;;
17372;SDS011;8803;48.116;11.590;2023-01-15T07:42:48;0.20;;;0.20;;
17372;SDS011;8803;48.116;11.590;2023-01-15T07:45:10;0.33;;;0.30;;
17372;SDS011;8803;48.116;11.590;2023-01-15T07:47:23;0.43;;;0.30;;
17372;SDS011;8803;48.116;11.590;2023-01-15T07:49:46;0.10;;;0.10;;
17372;SDS011;8803;48.116;11.590;2023-01-15T07:51:59;0.20;;;0.20;;
17372;SDS011;8803;48.116;11.590;2023-01-15T07:54:02;0.30;;;0.20;;
17372;SDS011;8803;48.116;11.590;2023-01-15T07:56:15;0.30;;;0.30;;
17372;SDS011;8803;48.116;11.590;2023-01-15T07:58:19;0.20;;;0.20;;
17372;SDS011;8803;48.116;11.590;2023-01-15T08:00:23;0.30;;;0.20;;
17372;SDS011;8803;48.116;11.590;2023-01-15T08:02:36;0.20;;;0.20;;
17372;SDS011;8803;48.116;11.590;2023-01-15T08:04:40;0.97;;;0.20;;
17372;SDS011;8803;48.116;11.590;2023-01-15T08:06:53;0.33;;;0.33;;
17372;SDS011;8803;48.116;11.590;2023-01-15T08:08:56;0.93;;;0.40;;
17372;SDS011;8803;48.116;11.590;2023-01-15T08:11:01;0.30;;;0.30;;
17372;SDS011;8803;48.116;11.590;2023-01-15T08:13:22;0.37;;;0.37;;
17372;SDS011;8803;48.116;11.590;2023-01-15T08:15:44;0.30;;;0.30;;
17372;SDS011;8803;48.116;11.590;2023-01-15T08:17:56;0.40;;;0.40;;
17372;SDS011;8803;48.116;11.590;2023-01-15T08:20:00;0.50;;;0.20;;
17372;SDS011;8803;48.116;11.590;2023-01-15T08:22:05;1.00;;;0.50;;
17372;SDS011;8803;48.116;11.590;2023-01-15T08:24:10;0.50;;;0.43;;
17372;SDS011;8803;48.116;11.590;2023-01-15T08:26:23;0.50;;;0.40;;
17372;SDS011;8803;48.116;11.590;2023-01-15T08:28:27;0.30;;;0.30;;
17372;SDS011;8803;48.116;11.590;2023-01-15T08:30:31;0.60;;;0.50;;
17372;SDS011;8803;48.116;11.590;2023-01-15T08:32:35;0.60;;;0.60;;
17372;SDS011;8803;48.116;11.590;2023-01-15T08:34:50;0.50;;;0.50;;
17372;SDS011;8803;48.116;11.590;2023-01-15T08:36:54;1.13;;;0.90;;
17372;SDS011;8803;48.116;11.590;2023-01-15T08:38:59;0.50;;;0.40;;
17372;SDS011;8803;48.116;11.590;2023-01-15T08:41:04;0.40;;;0.40;;
17372;SDS011;8803;48.116;11.590;2023-01-15T08:43:07;0.37;;;0.30;;
17372;SDS011;8803;48.116;11.590;2023-01-15T08:45:20;0.43;;;0.40;;
17372;SDS011;8803;48.116;11.590;2023-01-15T08:47:24;0.50;;;0.40;;
17372;SDS011;8803;48.116;11.590;2023-01-15T08:49:28;0.40;;;0.30;;
17372;SDS011;8803;48.116;11.590;2023-01-15T08:53:43;0.80;;;0.73;;
17372;SDS011;8803;48.116;11.590;2023-01-15T08:55:47;1.07;;;0.73;;
17372;SDS011;8803;48.116;11.590;2023-01-15T08:58:02;0.60;;;0.50;;
17372;SDS011;8803;48.116;11.590;2023-01-15T09:00:07;0.40;;;0.40;;
17372;SDS011;8803;48.116;11.590;2023-01-15T09:02:22;0.67;;;0.40;;
17372;SDS011;8803;48.116;11.590;2023-01-15T09:04:27;0.90;;;0.70;;
17372;SDS011;8803;48.116;11.590;2023-01-15T09:06:31;1.07;;;0.97;;
17372;SDS011;8803;48.116;11.590;2023-01-15T09:08:44;1.90;;;1.50;;
17372;SDS011;8803;48.116;11.590;2023-01-15T09:10:47;2.07;;;1.30;;
17372;SDS011;8803;48.116;11.590;2023-01-15T09:12:51;2.63;;;1.40;;
17372;SDS011;8803;48.116;11.590;2023-01-15T09:14:55;1.47;;;0.80;;
17372;SDS011;8803;48.116;11.590;2023-01-15T09:16:59;0.60;;;0.60;;
17372;SDS011;8803;48.116;11.590;2023-01-15T09:19:11;0.57;;;0.50;;
17372;SDS011;8803;48.116;11.590;2023-01-15T09:21:15;0.43;;;0.30;;
17372;SDS011;8803;48.116;11.590;2023-01-15T09:23:28;0.33;;;0.33;;
17372;SDS011;8803;48.116;11.590;2023-01-15T09:25:31;0.40;;;0.40;;
17372;SDS011;8803;48.116;11.590;2023-01-15T09:27:44;0.30;;;0.30;;
17372;SDS011;8803;48.116;11.590;2023-01-15T09:29:49;0.30;;;0.30;;
17372;SDS011;8803;48.116;11.590;2023-01-15T09:31:53;1.30;;;0.50;;
17372;SDS011;8803;48.116;11.590;2023-01-15T09:34:06;0.40;;;0.40;;
17372;SDS011;8803;48.116;11.590;2023-01-15T09:36:14;1.03;;;0.40;;
17372;SDS011;8803;48.116;11.590;2023-01-15T09:38:19;0.50;;;0.40;;
17372;SDS011;8803;48.116;11.590;2023-01-15T09:40:31;0.40;;;0.33;;
17372;SDS011;8803;48.116;11.590;2023-01-15T09:45:00;0.40;;;0.40;;
17372;SDS011;8803;48.116;11.590;2023-01-15T09:47:22;0.50;;;0.40;;
17372;SDS011;8803;48.116;11.590;2023-01-15T09:49:39;0.63;;;0.50;;
17372;SDS011;8803;48.116;11.590;2023-01-15T09:51:55;0.50;;;0.40;;
17372;SDS011;8803;48.116;11.590;2023-01-15T09:54:21;0.60;;;0.40;;
17372;SDS011;8803;48.116;11.590;2023-01-15T09:56:36;0.57;;;0.50;;
17372;SDS011;8803;48.116;11.590;2023-01-15T09:58:40;0.87;;;0.50;;
17372;SDS011;8803;48.116;11.590;2023-01-15T10:00:44;1.07;;;0.50;;
17372;SDS011;8803;48.116;11.590;2023-01-15T10:02:50;0.43;;;0.40;;
17372;SDS011;8803;48.116;11.590;2023-01-15T10:04:58;0.40;;;0.40;;
17372;SDS011;8803;48.116;11.590;2023-01-15T10:07:15;0.50;;;0.50;;
17372;SDS011;8803;48.116;11.590;2023-01-15T10:09:20;0.87;;;0.40;;
17372;SDS011;8803;48.116;11.590;2023-01-15T10:11:37;1.80;;;0.70;;
17372;SDS011;8803;48.116;11.590;2023-01-15T10:13:49;1.03;;;0.50;;
17372;SDS011;8803;48.116;11.590;2023-01-15T10:15:56;1.13;;;0.30;;
17372;SDS011;8803;48.116;11.590;2023-01-15T10:18:00;0.83;;;0.50;;
17372;SDS011;8803;48.116;11.590;2023-01-15T10:24:57;0.47;;;0.30;;
17372;SDS011;8803;48.116;11.590;2023-01-15T10:27:12;0.70;;;0.60;;
17372;SDS011;8803;48.116;11.590;2023-01-15T10:29:25;2.03;;;1.10;;
17372;SDS011;8803;48.116;11.590;2023-01-15T10:31:39;3.20;;;2.20;;
17372;SDS011;8803;48.116;11.590;2023-01-15T10:34:20;1.13;;;0.40;;
17372;SDS011;8803;48.116;11.590;2023-01-15T10:36:53;0.20;;;0.20;;
17372;SDS011;8803;48.116;11.590;2023-01-15T10:39:09;0.23;;;0.20;;
17372;SDS011;8803;48.116;11.590;2023-01-15T10:41:37;0.30;;;0.30;;
17372;SDS011;8803;48.116;11.590;2023-01-15T10:43:54;0.20;;;0.20;;
17372;SDS011;8803;48.116;11.590;2023-01-15T10:46:10;0.10;;;0.10;;
17372;SDS011;8803;48.116;11.590;2023-01-15T10:48:17;0.30;;;0.30;;
17372;SDS011;8803;48.116;11.590;2023-01-15T10:50:25;0.10;;;0.10;;
17372;SDS011;8803;48.116;11.590;2023-01-15T10:52:38;0.90;;;0.70;;
17372;SDS011;8803;48.116;11.590;2023-01-15T10:54:47;0.40;;;0.40;;
17372;SDS011;8803;48.116;11.590;2023-01-15T10:57:02;0.23;;;0.20;;
17372;SDS011;8803;48.116;11.590;2023-01-15T10:59:15;0.27;;;0.20;;
17372;SDS011;8803;48.116;11.590;2023-01-15T11:01:22;0.30;;;0.30;;
17372;SDS011;8803;48.116;11.590;2023-01-15T11:03:31;0.30;;;0.30;;
17372;SDS011;8803;48.116;11.590;2023-01-15T11:05:45;0.80;;;0.40;;
17372;SDS011;8803;48.116;11.590;2023-01-15T11:07:50;0.40;;;0.40;;
17372;SDS011;8803;48.116;11.590;2023-01-15T11:09:54;0.43;;;0.30;;
17372;SDS011;8803;48.116;11.590;2023-01-15T11:12:04;0.40;;;0.30;;
17372;SDS011;8803;48.116;11.590;2023-01-15T11:14:19;0.20;;;0.20;;
17372;SDS011;8803;48.116;11.590;2023-01-15T11:16:52;0.93;;;0.70;;
17372;SDS011;8803;48.116;11.590;2023-01-15T11:23:52;0.30;;;0.30;;
17372;SDS011;8803;48.116;11.590;2023-01-15T11:25:58;0.63;;;0.20;;
17372;SDS011;8803;48.116;11.590;2023-01-15T11:28:04;0.40;;;0.40;;
17372;SDS011;8803;48.116;11.590;2023-01-15T11:30:24;0.47;;;0.30;;
17372;SDS011;8803;48.116;11.590;2023-01-15T11:32:33;0.40;;;0.40;;
17372;SDS011;8803;48.116;11.590;2023-01-15T11:34:51;0.30;;;0.30;;
17372;SDS011;8803;48.116;11.590;2023-01-15T11:37:02;0.20;;;0.20;;
17372;SDS011;8803;48.116;11.590;2023-01-15T11:39:19;0.30;;;0.30;;
17372;SDS011;8803;48.116;11.590;2023-01-15T11:41:28;0.40;;;0.30;;
17372;SDS011;8803;48.116;11.590;2023-01-15T11:43:53;0.13;;;0.13;;
17372;SDS011;8803;48.116;11.590;2023-01-15T11:46:18;0.60;;;0.30;;
17372;SDS011;8803;48.116;11.590;2023-01-15T11:48:46;0.53;;;0.40;;
17372;SDS011;8803;48.116;11.590;2023-01-15T11:51:08;0.73;;;0.40;;
17372;SDS011;8803;48.116;11.590;2023-01-15T11:53:15;0.50;;;0.50;;
17372;SDS011;8803;48.116;11.590;2023-01-15T11:55:22;0.50;;;0.40;;
17372;SDS011;8803;48.116;11.590;2023-01-15T11:57:29;0.60;;;0.60;;
17372;SDS011;8803;48.116;11.590;2023-01-15T11:59:44;0.50;;;0.50;;
17372;SDS011;8803;48.116;11.590;2023-01-15T12:01:51;0.70;;;0.70;;
17372;SDS011;8803;48.116;11.590;2023-01-15T12:04:06;0.80;;;0.60;;
17372;SDS011;8803;48.116;11.590;2023-01-15T12:06:22;0.70;;;0.50;;
17372;SDS011;8803;48.116;11.590;2023-01-15T12:08:31;0.70;;;0.50;;
17372;SDS011;8803;48.116;11.590;2023-01-15T12:10:43;0.67;;;0.60;;
17372;SDS011;8803;48.116;11.590;2023-01-15T12:13:05;0.73;;;0.60;;
17372;SDS011;8803;48.116;11.590;2023-01-15T12:15:17;0.37;;;0.30;;
17372;SDS011;8803;48.116;11.590;2023-01-15T12:17:54;2.57;;;1.10;;
17372;SDS011;8803;48.116;11.590;2023-01-15T12:20:18;1.57;;;1.20;;
17372;SDS011;8803;48.116;11.590;2023-01-15T12:22:41;0.50;;;0.50;;
17372;SDS011;8803;48.116;11.590;2023-01-15T12:25:02;0.60;;;0.50;;
17372;SDS011;8803;48.116;11.590;2023-01-15T12:27:44;0.60;;;0.60;;
17372;SDS011;8803;48.116;11.590;2023-01-15T12:29:53;0.30;;;0.30;;
17372;SDS011;8803;48.116;11.590;2023-01-15T12:32:00;0.83;;;0.50;;
17372;SDS011;8803;48.116;11.590;2023-01-15T12:34:15;0.50;;;0.50;;
17372;SDS011;8803;48.116;11.590;2023-01-15T12:36:23;0.50;;;0.50;;
17372;SDS011;8803;48.116;11.590;2023-01-15T12:38:36;0.50;;;0.50;;
17372;SDS011;8803;48.116;11.590;2023-01-15T12:42:56;1.00;;;0.60;;
17372;SDS011;8803;48.116;11.590;2023-01-15T12:45:19;0.50;;;0.50;;
17372;SDS011;8803;48.116;11.590;2023-01-15T12:47:26;0.60;;;0.60;;
17372;SDS011;8803;48.116;11.590;2023-01-15T12:49:41;0.70;;;0.60;;
17372;SDS011;8803;48.116;11.590;2023-01-15T12:51:48;0.50;;;0.50;;
17372;SDS011;8803;48.116;11.590;2023-01-15T12:53:56;0.40;;;0.40;;
17372;SDS011;8803;48.116;11.590;2023-01-15T12:56:03;0.63;;;0.60;;
17372;SDS011;8803;48.116;11.590;2023-01-15T12:58:11;0.70;;;0.70;;
17372;SDS011;8803;48.116;11.590;2023-01-15T13:00:18;0.67;;;0.50;;
17372;SDS011;8803;48.116;11.590;2023-01-15T13:02:26;1.00;;;0.50;;
17372;SDS011;8803;48.116;11.590;2023-01-15T13:04:43;1.20;;;0.53;;
17372;SDS011;8803;48.116;11.590;2023-01-15T13:06:50;1.00;;;0.70;;
17372;SDS011;8803;48.116;11.590;2023-01-15T13:08:58;1.07;;;0.70;;
17372;SDS011;8803;48.116;11.590;2023-01-15T13:11:05;1.00;;;0.80;;
17372;SDS011;8803;48.116;11.590;2023-01-15T13:13:14;2.03;;;1.10;;
17372;SDS011;8803;48.116;11.590;2023-01-15T13:15:28;1.37;;;0.77;;
17372;SDS011;8803;48.116;11.590;2023-01-15T13:17:35;1.17;;;0.70;;
17372;SDS011;8803;48.116;11.590;2023-01-15T13:19:43;1.47;;;0.90;;
17372;SDS011;8803;48.116;11.590;2023-01-15T13:21:50;0.83;;;0.67;;
17372;SDS011;8803;48.116;11.590;2023-01-15T13:24:06;1.03;;;0.63;;
17372;SDS011;8803;48.116;11.590;2023-01-15T13:26:25;1.27;;;0.80;;
17372;SDS011;8803;48.116;11.590;2023-01-15T13:28:40;1.03;;;0.70;;
17372;SDS011;8803;48.116;11.590;2023-01-15T13:31:01;0.63;;;0.60;;
17372;SDS011;8803;48.116;11.590;2023-01-15T13:35:26;0.50;;;0.50;;
17372;SDS011;8803;48.116;11.590;2023-01-15T13:37:32;1.00;;;0.70;;
17372;SDS011;8803;48.116;11.590;2023-01-15T13:39:49;0.53;;;0.40;;